Time;durP1;ratioP1;P1;durP2;ratioP2;P2;SDS_P1;SDS_P2;PMS_P1;PMS_P2;Temp;Humidity;BMP_temperature;BMP_pressure;BME280_temperature;BME280_humidity;BME280_pressure;Samples;Min_cycle;Max_cycle;Signal;HPM_P1;HPM_P2
2023/08/16 00:01:47;;;;;;;4.55;4.15;;;27.10;96.70;;;;;;5059937;28;20117;-77
2023/08/16 00:04:14;;;;;;;7.60;4.60;;;27.00;96.70;;;;;;5059346;28;20064;-76
2023/08/16 00:06:43;;;;;;;4.65;4.10;;;27.00;96.70;;;;;;5060202;28;20689;-78
2023/08/16 00:09:10;;;;;;;4.30;3.97;;;27.00;96.70;;;;;;5061854;28;20563;-78
2023/08/16 00:11:39;;;;;;;5.85;4.82;;;27.10;96.70;;;;;;5062170;28;20670;-79
2023/08/16 00:14:06;;;;;;;4.95;4.55;;;27.10;96.70;;;;;;5059503;28;20157;-79
2023/08/16 00:16:37;;;;;;;5.78;5.28;;;27.10;96.70;;;;;;5055669;28;20075;-78
2023/08/16 00:19:05;;;;;;;4.90;4.40;;;27.00;96.70;;;;;;5060865;28;20037;-77
2023/08/16 00:21:33;;;;;;;5.40;4.60;;;26.90;96.70;;;;;;5050754;28;20037;-77
2023/08/16 00:24:04;;;;;;;4.93;4.50;;;26.90;96.70;;;;;;5063079;28;20048;-77
2023/08/16 00:26:33;;;;;;;5.90;4.25;;;26.90;96.70;;;;;;5058354;28;20040;-77
2023/08/16 00:29:01;;;;;;;4.97;4.47;;;27.00;96.70;;;;;;5057998;28;20101;-77
2023/08/16 00:31:30;;;;;;;4.18;3.78;;;26.90;96.70;;;;;;5065029;28;20053;-77
2023/08/16 00:34:00;;;;;;;5.20;4.20;;;26.90;96.70;;;;;;5062592;28;20048;-78
2023/08/16 00:36:28;;;;;;;8.93;4.45;;;26.90;96.70;;;;;;5064855;28;20072;-77
2023/08/16 00:38:56;;;;;;;6.47;4.28;;;26.90;96.70;;;;;;5058525;28;20441;-77
2023/08/16 00:41:25;;;;;;;4.00;3.67;;;26.80;96.70;;;;;;5043780;28;20044;-77
2023/08/16 00:43:53;;;;;;;4.95;4.40;;;26.80;96.70;;;;;;5059870;28;20037;-77
2023/08/16 00:46:22;;;;;;;4.47;4.07;;;26.80;96.70;;;;;;5058319;28;20049;-78
2023/08/16 00:48:50;;;;;;;5.90;3.72;;;26.80;96.70;;;;;;5055963;28;20064;-77
2023/08/16 00:51:21;;;;;;;4.45;4.05;;;26.80;96.70;;;;;;5060916;28;20414;-78
2023/08/16 00:53:51;;;;;;;4.65;4.25;;;26.80;96.70;;;;;;5073876;28;20095;-79
2023/08/16 00:56:20;;;;;;;4.35;3.78;;;26.70;96.70;;;;;;5065313;28;20123;-79
2023/08/16 00:59:04;;;;;;;6.00;4.22;;;26.80;96.70;;;;;;5065955;28;20037;-78
2023/08/16 01:01:42;;;;;;;6.07;4.13;;;26.80;96.70;;;;;;5060372;28;20474;-73
2023/08/16 01:04:13;;;;;;;4.50;4.10;;;26.70;96.70;;;;;;5066185;28;20123;-74
2023/08/16 01:06:57;;;;;;;4.70;4.18;;;26.60;96.70;;;;;;5066435;28;20045;-73
2023/08/16 01:09:32;;;;;;;5.22;3.90;;;26.60;96.70;;;;;;5064226;28;20040;-73
2023/08/16 01:12:07;;;;;;;6.53;4.30;;;26.50;96.70;;;;;;5048271;28;20139;-73
2023/08/16 01:14:42;;;;;;;4.70;4.22;;;26.50;96.70;;;;;;5069865;28;20064;-73
2023/08/16 01:17:13;;;;;;;4.40;4.00;;;26.60;96.70;;;;;;5066544;28;20083;-73
2023/08/16 01:19:44;;;;;;;6.40;4.20;;;26.60;96.70;;;;;;5048451;28;20307;-73
2023/08/16 01:22:25;;;;;;;5.00;3.95;;;26.70;96.70;;;;;;5062085;28;20063;-73
2023/08/16 01:25:09;;;;;;;4.88;3.95;;;26.70;96.70;;;;;;5064945;28;20231;-73
2023/08/16 01:27:41;;;;;;;5.85;4.55;;;26.60;96.70;;;;;;5059225;28;20530;-73
2023/08/16 01:30:11;;;;;;;5.20;3.58;;;26.60;96.70;;;;;;5065340;28;20036;-73
2023/08/16 01:32:41;;;;;;;7.15;4.53;;;26.40;96.70;;;;;;5056633;28;20159;-73
2023/08/16 01:35:10;;;;;;;4.32;3.92;;;26.30;96.70;;;;;;5065775;28;20045;-73
2023/08/16 01:37:39;;;;;;;6.68;4.18;;;26.30;96.70;;;;;;5066567;28;20675;-73
2023/08/16 01:40:09;;;;;;;4.55;4.15;;;26.30;96.70;;;;;;5066235;28;20048;-73
2023/08/16 01:42:47;;;;;;;5.10;4.20;;;26.30;96.70;;;;;;5063357;28;20075;-74
2023/08/16 01:45:19;;;;;;;4.07;3.78;;;26.40;96.70;;;;;;5065099;28;20102;-73
2023/08/16 01:47:50;;;;;;;5.22;3.90;;;26.30;96.70;;;;;;5065804;28;20131;-73
2023/08/16 01:50:20;;;;;;;4.45;3.80;;;26.30;96.70;;;;;;5064598;28;20506;-73
2023/08/16 01:52:49;;;;;;;5.28;4.47;;;26.30;96.70;;;;;;5064515;28;20072;-73
2023/08/16 01:55:19;;;;;;;4.75;4.20;;;26.30;96.70;;;;;;5047306;28;20048;-73
2023/08/16 01:57:50;;;;;;;4.93;4.15;;;26.20;96.70;;;;;;5064009;28;20545;-73
2023/08/16 02:00:19;;;;;;;5.78;4.20;;;26.10;96.70;;;;;;5064070;28;20102;-73
2023/08/16 02:02:48;;;;;;;6.18;4.15;;;26.10;96.70;;;;;;5065651;28;20472;-73
2023/08/16 02:05:17;;;;;;;5.28;4.57;;;26.20;96.70;;;;;;5065478;28;20589;-73
2023/08/16 02:07:46;;;;;;;4.93;4.10;;;26.20;96.70;;;;;;5080965;28;20231;-73
2023/08/16 02:10:16;;;;;;;6.05;4.65;;;26.10;96.70;;;;;;5047828;28;20082;-73
2023/08/16 02:16:12;;;;;;;5.15;4.68;;;26.20;96.70;;;;;;5063893;28;20158;-73
2023/08/16 02:18:41;;;;;;;5.30;4.28;;;25.90;96.70;;;;;;5047387;28;20072;-74
2023/08/16 02:21:12;;;;;;;4.72;4.20;;;25.90;96.70;;;;;;5063775;28;20573;-78
2023/08/16 02:23:41;;;;;;;4.47;4.07;;;25.90;96.70;;;;;;5063596;28;20409;-78
2023/08/16 02:26:10;;;;;;;5.25;4.13;;;25.90;96.70;;;;;;5063923;28;20115;-78
2023/08/16 02:28:39;;;;;;;4.70;4.30;;;25.90;96.70;;;;;;5064799;28;20496;-78
2023/08/16 02:31:08;;;;;;;4.88;4.47;;;26.00;96.70;;;;;;5065336;28;20051;-78
2023/08/16 02:33:39;;;;;;;5.32;4.68;;;26.10;96.70;;;;;;5043459;28;20076;-80
2023/08/16 02:36:08;;;;;;;4.85;4.40;;;26.00;96.70;;;;;;5063908;28;20048;-77
2023/08/16 02:38:38;;;;;;;6.30;4.57;;;26.00;96.70;;;;;;5065453;28;20113;-78
2023/08/16 02:41:07;;;;;;;5.25;4.85;;;26.00;96.70;;;;;;5064726;28;20048;-78
2023/08/16 02:43:36;;;;;;;7.13;5.32;;;26.00;96.70;;;;;;5061016;28;20123;-77
2023/08/16 02:46:05;;;;;;;5.78;5.20;;;26.10;96.70;;;;;;5061915;28;20445;-77
2023/08/16 02:48:34;;;;;;;7.47;5.38;;;26.10;96.70;;;;;;5063161;28;20437;-77
2023/08/16 02:51:05;;;;;;;6.45;5.50;;;26.10;96.70;;;;;;5057161;28;20074;-77
2023/08/16 02:53:34;;;;;;;6.43;4.68;;;26.00;96.70;;;;;;5065170;28;20051;-78
2023/08/16 02:56:03;;;;;;;5.93;4.32;;;25.90;96.70;;;;;;5076226;28;20047;-78
2023/08/16 02:58:32;;;;;;;5.25;4.78;;;25.90;96.70;;;;;;5062941;28;20052;-76
2023/08/16 03:01:01;;;;;;;5.85;4.35;;;25.80;96.70;;;;;;5064763;28;20037;-76
2023/08/16 03:03:32;;;;;;;5.20;4.47;;;25.80;96.70;;;;;;5062972;28;20051;-76
2023/08/16 03:06:01;;;;;;;7.03;4.50;;;25.80;96.70;;;;;;5062547;28;20036;-76
2023/08/16 03:08:32;;;;;;;4.50;3.92;;;25.70;96.70;;;;;;5065120;28;20465;-76
2023/08/16 03:11:02;;;;;;;4.25;3.90;;;25.70;96.70;;;;;;5063104;28;20041;-76
2023/08/16 03:13:31;;;;;;;4.43;4.03;;;25.60;96.70;;;;;;5062358;28;20159;-76
2023/08/16 03:15:59;;;;;;;4.10;3.70;;;25.60;96.70;;;;;;5064450;28;20111;-76
2023/08/16 03:18:29;;;;;;;4.28;3.88;;;25.60;96.70;;;;;;5063061;28;20037;-76
2023/08/16 03:20:58;;;;;;;5.28;3.90;;;25.50;96.70;;;;;;5062956;28;20072;-76
2023/08/16 03:23:28;;;;;;;5.00;4.07;;;25.60;96.70;;;;;;5062627;28;20144;-76
2023/08/16 03:25:58;;;;;;;4.95;4.00;;;25.60;96.70;;;;;;5046595;28;20041;-78
2023/08/16 03:28:28;;;;;;;5.82;4.25;;;25.60;96.70;;;;;;5064123;28;21187;-79
2023/08/16 03:30:58;;;;;;;4.85;4.35;;;25.50;96.70;;;;;;5063124;28;20063;-77
2023/08/16 03:33:28;;;;;;;4.40;3.85;;;25.50;96.70;;;;;;5062721;28;20048;-76
2023/08/16 03:35:57;;;;;;;6.47;4.10;;;25.50;96.70;;;;;;5062848;28;20469;-78
2023/08/16 03:38:26;;;;;;;6.03;4.18;;;25.60;96.70;;;;;;5062478;28;20494;-77
2023/08/16 03:40:57;;;;;;;3.78;3.47;;;25.60;96.70;;;;;;5046096;28;20135;-77
2023/08/16 03:43:31;;;;;;;4.13;3.83;;;25.50;96.70;;;;;;5062156;28;20834;-77
2023/08/16 03:46:00;;;;;;;4.35;3.95;;;25.40;96.70;;;;;;5063786;28;20161;-77
2023/08/16 03:48:29;;;;;;;6.22;3.83;;;25.40;96.70;;;;;;5042904;28;20048;-77
2023/08/16 03:50:58;;;;;;;4.60;3.60;;;25.40;96.70;;;;;;5061476;28;20082;-77
2023/08/16 03:53:28;;;;;;;4.43;4.00;;;25.50;96.70;;;;;;5063526;28;20127;-77
2023/08/16 03:55:59;;;;;;;4.20;3.85;;;25.40;96.70;;;;;;5061637;28;20611;-77
2023/08/16 03:58:28;;;;;;;3.97;3.58;;;25.40;96.70;;;;;;5063707;28;20044;-77
2023/08/16 04:00:57;;;;;;;3.90;3.60;;;25.40;96.70;;;;;;5064069;28;20037;-78
2023/08/16 04:03:26;;;;;;;4.97;3.85;;;25.40;96.70;;;;;;5064020;28;20045;-77
2023/08/16 04:05:55;;;;;;;4.20;3.83;;;25.40;96.70;;;;;;5062579;28;20045;-78
2023/08/16 04:08:24;;;;;;;6.30;3.90;;;25.30;96.70;;;;;;5063917;28;20052;-78
2023/08/16 04:10:54;;;;;;;4.20;3.88;;;25.20;96.70;;;;;;5062297;28;20045;-77
2023/08/16 04:13:25;;;;;;;5.93;3.97;;;25.30;96.70;;;;;;5062058;28;20052;-78
2023/08/16 04:15:54;;;;;;;4.22;3.60;;;25.40;96.70;;;;;;5063612;28;20040;-77
2023/08/16 04:18:23;;;;;;;4.57;4.18;;;25.30;96.70;;;;;;5062026;28;20504;-77
2023/08/16 04:20:52;;;;;;;6.43;4.20;;;25.30;96.70;;;;;;5062302;28;20456;-77
2023/08/16 04:23:21;;;;;;;5.07;3.70;;;25.40;96.70;;;;;;5062078;28;20044;-76
2023/08/16 04:25:50;;;;;;;4.43;4.03;;;25.40;96.70;;;;;;5078731;28;20056;-77
2023/08/16 04:28:19;;;;;;;4.03;3.63;;;25.40;96.70;;;;;;5062052;28;20036;-77
2023/08/16 04:30:50;;;;;;;5.10;4.00;;;25.30;96.70;;;;;;5062100;28;20470;-77
2023/08/16 04:33:19;;;;;;;6.32;4.55;;;25.30;96.70;;;;;;5061431;28;20110;-76
2023/08/16 04:35:48;;;;;;;4.40;3.97;;;25.20;96.70;;;;;;5062089;28;20179;-77
2023/08/16 04:38:18;;;;;;;4.38;3.97;;;25.20;96.70;;;;;;5061866;28;20049;-77
2023/08/16 04:40:51;;;;;;;4.25;3.85;;;25.20;96.70;;;;;;5045528;28;20478;-77
2023/08/16 04:43:21;;;;;;;4.68;4.20;;;25.30;96.70;;;;;;5078045;28;20525;-77
2023/08/16 04:45:52;;;;;;;5.50;4.05;;;25.30;96.70;;;;;;5058757;28;20045;-76
2023/08/16 04:48:21;;;;;;;4.38;3.97;;;25.20;96.70;;;;;;5039871;28;20062;-76
2023/08/16 04:50:51;;;;;;;4.43;4.03;;;25.30;96.70;;;;;;5063571;28;20041;-77
2023/08/16 04:53:20;;;;;;;5.15;4.32;;;25.40;96.70;;;;;;5061893;28;20037;-77
2023/08/16 04:55:49;;;;;;;6.65;4.63;;;25.40;96.70;;;;;;5045234;28;20045;-77
2023/08/16 04:58:18;;;;;;;4.95;4.50;;;25.30;96.70;;;;;;5062807;28;20041;-77
2023/08/16 05:00:52;;;;;;;4.03;3.70;;;25.30;96.70;;;;;;5062115;28;20509;-77
2023/08/16 05:03:21;;;;;;;4.93;4.13;;;25.30;96.70;;;;;;5061929;28;20048;-77
2023/08/16 05:05:56;;;;;;;4.80;3.90;;;25.30;96.70;;;;;;5063307;28;20040;-77
2023/08/16 05:08:27;;;;;;;5.07;4.57;;;25.30;96.70;;;;;;5061651;28;21392;-77
2023/08/16 05:10:59;;;;;;;4.40;3.58;;;25.40;96.70;;;;;;5081899;28;20098;-76
2023/08/16 05:13:31;;;;;;;5.35;4.05;;;25.40;96.70;;;;;;5065366;28;20525;-77
2023/08/16 05:16:06;;;;;;;4.70;4.30;;;25.40;96.70;;;;;;5065345;28;20063;-76
2023/08/16 05:18:38;;;;;;;4.63;4.07;;;25.50;96.70;;;;;;5046152;28;20060;-77
2023/08/16 05:21:10;;;;;;;6.30;4.60;;;25.60;96.70;;;;;;5065453;28;20135;-76
2023/08/16 05:23:43;;;;;;;5.05;3.97;;;25.60;96.70;;;;;;5066686;28;20583;-77
2023/08/16 05:26:16;;;;;;;4.78;4.30;;;25.70;96.70;;;;;;5066601;28;20076;-77
2023/08/16 05:28:48;;;;;;;5.70;3.83;;;25.80;96.70;;;;;;5065391;28;20115;-77
2023/08/16 05:31:20;;;;;;;5.72;3.97;;;25.70;96.70;;;;;;5065668;28;20139;-77
2023/08/16 05:33:52;;;;;;;5.70;4.38;;;25.60;96.70;;;;;;5065507;28;20517;-77
2023/08/16 05:36:28;;;;;;;5.35;4.13;;;25.60;96.70;;;;;;5065989;28;20132;-77
2023/08/16 05:38:58;;;;;;;5.63;4.53;;;25.60;96.70;;;;;;5063919;28;20044;-76
2023/08/16 05:41:28;;;;;;;5.95;4.72;;;25.60;96.70;;;;;;5065001;28;20036;-76
2023/08/16 05:43:58;;;;;;;5.05;4.38;;;25.70;96.70;;;;;;5065350;28;20044;-76
2023/08/16 05:46:28;;;;;;;4.75;3.97;;;25.70;96.70;;;;;;5063488;28;21585;-77
2023/08/16 05:49:00;;;;;;;5.30;4.30;;;25.70;96.70;;;;;;5063135;28;20047;-75
2023/08/16 05:51:30;;;;;;;6.22;4.65;;;25.70;96.70;;;;;;5064820;28;20094;-75
2023/08/16 05:53:59;;;;;;;4.63;4.22;;;25.80;96.70;;;;;;5064453;28;20090;-76
2023/08/16 05:56:28;;;;;;;4.78;4.25;;;25.90;96.70;;;;;;5043806;28;20049;-80
2023/08/16 05:58:57;;;;;;;6.03;4.95;;;25.90;96.70;;;;;;5061671;28;20119;-79
2023/08/16 06:01:28;;;;;;;4.93;4.50;;;25.90;96.70;;;;;;5063851;28;20048;-77
2023/08/16 06:03:57;;;;;;;5.25;4.85;;;26.00;96.70;;;;;;5080117;28;20055;-79
2023/08/16 06:06:27;;;;;;;5.25;4.55;;;26.00;96.70;;;;;;5064644;28;20131;-77
2023/08/16 06:08:56;;;;;;;5.03;4.63;;;25.90;96.70;;;;;;5066049;28;20421;-78
2023/08/16 06:11:25;;;;;;;5.20;4.80;;;25.90;96.70;;;;;;5047398;28;20580;-77
2023/08/16 06:13:54;;;;;;;5.90;5.40;;;25.90;96.70;;;;;;5062800;28;20041;-76
2023/08/16 06:16:23;;;;;;;5.63;4.90;;;26.00;96.70;;;;;;5063351;28;20107;-76
2023/08/16 06:18:55;;;;;;;5.50;5.00;;;25.90;96.70;;;;;;5065425;28;20521;-77
2023/08/16 06:21:25;;;;;;;6.53;5.75;;;26.00;96.70;;;;;;5063934;28;20269;-77
2023/08/16 06:23:56;;;;;;;5.88;4.80;;;26.00;96.70;;;;;;5064144;28;20041;-77
2023/08/16 06:26:25;;;;;;;6.80;6.00;;;25.90;96.70;;;;;;5063769;28;20044;-77
2023/08/16 06:28:54;;;;;;;7.03;5.95;;;26.00;96.70;;;;;;5064073;28;20036;-77
2023/08/16 06:31:23;;;;;;;7.10;6.50;;;26.10;96.70;;;;;;5065079;28;20059;-77
2023/08/16 06:33:54;;;;;;;9.60;7.05;;;26.20;96.70;;;;;;5063121;28;20052;-77
2023/08/16 06:36:24;;;;;;;10.60;7.57;;;26.10;96.70;;;;;;5057603;28;20048;-77
2023/08/16 06:38:53;;;;;;;7.45;6.75;;;26.00;96.70;;;;;;5065031;28;20102;-77
2023/08/16 06:41:22;;;;;;;7.72;7.03;;;26.00;96.70;;;;;;5064637;28;20406;-77
2023/08/16 06:43:51;;;;;;;7.18;5.65;;;25.90;96.70;;;;;;5063488;28;20133;-77
2023/08/16 06:46:21;;;;;;;9.35;7.32;;;26.00;96.70;;;;;;5065304;28;20456;-77
2023/08/16 06:48:50;;;;;;;7.97;7.18;;;26.10;96.70;;;;;;5067033;28;20044;-77
2023/08/16 06:51:21;;;;;;;9.27;7.18;;;26.10;96.70;;;;;;5063661;28;20037;-76
2023/08/16 06:53:50;;;;;;;9.43;7.40;;;26.20;96.70;;;;;;5064071;28;20050;-76
2023/08/16 06:56:20;;;;;;;7.53;6.80;;;26.10;96.70;;;;;;5063311;28;20048;-77
2023/08/16 06:58:51;;;;;;;8.98;6.65;;;26.10;96.70;;;;;;5064483;28;20457;-77
2023/08/16 07:01:20;;;;;;;8.02;6.50;;;26.30;96.70;;;;;;5063287;28;20045;-76
2023/08/16 07:03:50;;;;;;;8.23;7.15;;;26.30;96.70;;;;;;5062957;28;20462;-76
2023/08/16 07:06:21;;;;;;;10.35;7.03;;;26.40;96.70;;;;;;5063862;28;20040;-77
2023/08/16 07:08:50;;;;;;;7.65;6.47;;;26.50;96.70;;;;;;5063201;28;20506;-77
2023/08/16 07:11:20;;;;;;;7.47;6.63;;;26.50;96.70;;;;;;5064496;28;20040;-78
2023/08/16 07:13:49;;;;;;;9.43;7.18;;;26.70;96.70;;;;;;5059821;28;21233;-77
2023/08/16 07:16:18;;;;;;;8.23;6.40;;;26.70;96.70;;;;;;5062162;28;20044;-77
2023/08/16 07:30:14;;;;;;;8.23;6.88;;;26.80;96.70;;;;;;5084480;27;20435;-74
2023/08/16 07:32:42;;;;;;;8.40;6.57;;;27.10;96.70;;;;;;5079502;28;20048;-74
2023/08/16 07:35:11;;;;;;;8.57;6.72;;;27.20;96.70;;;;;;5080651;28;20412;-73
2023/08/16 07:37:39;;;;;;;8.05;7.35;;;27.30;96.70;;;;;;5082590;28;20425;-73
2023/08/16 07:40:08;;;;;;;7.40;6.60;;;27.40;96.70;;;;;;5080561;28;20143;-73
2023/08/16 07:42:37;;;;;;;7.82;6.57;;;27.30;96.70;;;;;;5081029;28;20046;-73
2023/08/16 07:45:06;;;;;;;8.73;7.05;;;27.40;96.70;;;;;;5099513;28;20042;-73
2023/08/16 07:47:36;;;;;;;7.88;7.15;;;27.40;96.70;;;;;;5099067;28;20108;-74
2023/08/16 07:50:05;;;;;;;7.95;7.15;;;27.40;96.70;;;;;;5087774;28;20047;-73
2023/08/16 07:52:34;;;;;;;7.40;6.70;;;27.40;96.70;;;;;;5088361;28;20048;-73
2023/08/16 07:55:03;;;;;;;8.82;6.60;;;27.50;96.70;;;;;;5082542;28;20047;-74
2023/08/16 07:57:31;;;;;;;7.10;6.50;;;27.50;96.70;;;;;;5082213;28;20516;-74
2023/08/16 08:00:00;;;;;;;8.32;6.75;;;27.60;96.70;;;;;;5082261;28;20044;-74
2023/08/16 08:02:42;;;;;;;10.32;6.57;;;27.60;96.70;;;;;;5094037;28;20669;-74
2023/08/16 08:05:26;;;;;;;8.23;6.95;;;27.60;96.70;;;;;;5062284;28;20155;-74
2023/08/16 08:07:55;;;;;;;7.65;6.72;;;27.60;96.70;;;;;;5115104;28;20070;-74
2023/08/16 08:10:23;;;;;;;7.00;6.30;;;27.60;96.70;;;;;;5082525;28;20229;-73
2023/08/16 08:12:51;;;;;;;7.90;6.05;;;27.70;96.70;;;;;;5100524;28;20035;-74
2023/08/16 08:15:20;;;;;;;5.95;5.45;;;27.80;96.70;;;;;;5087320;28;20040;-74
2023/08/16 08:17:50;;;;;;;6.15;5.60;;;28.00;96.70;;;;;;5081586;28;20071;-74
2023/08/16 08:20:18;;;;;;;10.32;6.90;;;28.00;96.70;;;;;;5082045;28;20048;-73
2023/08/16 08:22:47;;;;;;;7.43;6.07;;;28.00;96.70;;;;;;5078779;28;20067;-73
2023/08/16 08:25:15;;;;;;;6.70;6.05;;;28.00;96.70;;;;;;5100636;28;20047;-73
2023/08/16 08:27:43;;;;;;;6.88;6.18;;;28.10;96.70;;;;;;5078166;28;20102;-73
2023/08/16 08:30:15;;;;;;;7.20;6.40;;;28.20;96.70;;;;;;5087476;28;20046;-73
2023/08/16 08:32:44;;;;;;;6.18;5.65;;;28.30;96.70;;;;;;5048493;28;20094;-73
2023/08/16 08:35:14;;;;;;;6.57;5.85;;;28.30;96.70;;;;;;5068052;28;20043;-74
2023/08/16 08:37:42;;;;;;;6.20;5.70;;;28.20;96.70;;;;;;5070090;28;20750;-73
2023/08/16 08:40:11;;;;;;;6.47;5.88;;;28.30;96.70;;;;;;5067991;28;20143;-73
2023/08/16 08:42:41;;;;;;;6.68;5.90;;;28.30;96.70;;;;;;5068487;28;20042;-74
2023/08/16 08:45:13;;;;;;;5.78;5.20;;;28.40;96.70;;;;;;5051993;28;20505;-73
2023/08/16 08:47:43;;;;;;;6.40;5.80;;;28.50;96.70;;;;;;5068036;28;20045;-73
2023/08/16 08:50:13;;;;;;;6.53;5.82;;;28.60;96.70;;;;;;5065907;28;20155;-73
2023/08/16 08:52:50;;;;;;;6.40;5.47;;;28.80;96.70;;;;;;5067742;28;20055;-71
2023/08/16 08:55:19;;;;;;;5.80;5.30;;;28.90;96.70;;;;;;5051808;28;20040;-72
2023/08/16 08:57:53;;;;;;;6.18;5.60;;;28.90;96.70;;;;;;5067881;28;20489;-70
2023/08/16 09:00:24;;;;;;;6.22;5.53;;;29.00;96.70;;;;;;5078146;28;20051;-73
2023/08/16 09:02:55;;;;;;;9.73;5.60;;;29.10;96.70;;;;;;5067737;28;20523;-73
2023/08/16 09:05:25;;;;;;;6.90;5.68;;;29.20;96.70;;;;;;5085965;28;20051;-72
2023/08/16 09:07:56;;;;;;;6.05;5.43;;;29.20;96.70;;;;;;5051226;28;20055;-73
2023/08/16 09:10:24;;;;;;;5.97;5.20;;;29.20;96.70;;;;;;5066867;28;20064;-72
2023/08/16 09:12:53;;;;;;;9.10;5.30;;;29.30;96.70;;;;;;5083551;28;20055;-73
2023/08/16 09:15:21;;;;;;;6.90;5.38;;;29.40;96.70;;;;;;5068229;28;20040;-73
2023/08/16 09:17:53;;;;;;;6.55;5.20;;;29.40;96.70;;;;;;5067611;28;20511;-73
2023/08/16 09:20:25;;;;;;;5.68;5.10;;;29.50;96.70;;;;;;5051167;28;20102;-72
2023/08/16 09:22:54;;;;;;;7.78;5.20;;;29.50;96.70;;;;;;5064868;28;20565;-73
2023/08/16 09:25:24;;;;;;;6.80;5.38;;;29.60;96.70;;;;;;5065722;28;20081;-73
2023/08/16 09:27:53;;;;;;;5.65;5.05;;;29.60;96.70;;;;;;5085081;28;20044;-73
2023/08/16 09:30:23;;;;;;;6.57;5.03;;;29.70;96.70;;;;;;5066475;28;20041;-73
2023/08/16 09:32:53;;;;;;;6.18;5.68;;;29.90;96.70;;;;;;5063499;28;20052;-73
2023/08/16 09:35:29;;;;;;;5.28;4.78;;;30.00;96.70;;;;;;5085743;28;20135;-72
2023/08/16 09:37:58;;;;;;;5.78;5.20;;;30.00;96.70;;;;;;5085209;28;20071;-72
2023/08/16 09:40:26;;;;;;;6.35;4.68;;;30.10;96.70;;;;;;5051070;28;20680;-73
2023/08/16 09:42:59;;;;;;;5.53;5.03;;;30.20;96.70;;;;;;5084359;28;20139;-74
2023/08/16 09:45:32;;;;;;;5.13;4.63;;;30.30;96.70;;;;;;5066396;28;20477;-73
2023/08/16 09:48:01;;;;;;;5.10;4.65;;;30.30;96.70;;;;;;5073749;28;20139;-72
2023/08/16 09:50:35;;;;;;;5.15;4.75;;;30.20;96.70;;;;;;5072418;28;20127;-73
2023/08/16 09:53:20;;;;;;;7.38;5.70;;;30.30;96.70;;;;;;5066942;28;20119;-72
2023/08/16 09:56:04;;;;;;;6.38;4.63;;;30.40;96.70;;;;;;5059452;28;20044;-73
2023/08/16 09:58:53;;;;;;;5.10;4.65;;;30.50;96.70;;;;;;5058517;28;20096;-72
2023/08/16 10:01:22;;;;;;;6.85;5.03;;;30.60;96.70;;;;;;5047056;28;20441;-73
2023/08/16 10:03:53;;;;;;;9.82;5.85;;;30.70;96.70;;;;;;5080183;28;20512;-72
2023/08/16 10:06:27;;;;;;;5.85;4.75;;;30.80;96.70;;;;;;5084860;28;20054;-74
2023/08/16 10:08:59;;;;;;;6.88;5.38;;;30.80;96.70;;;;;;5084949;28;20040;-72
2023/08/16 10:11:28;;;;;;;5.45;4.95;;;30.90;96.70;;;;;;5085100;28;20123;-73
2023/08/16 10:13:58;;;;;;;5.57;4.68;;;31.10;96.70;;;;;;5066419;28;20052;-73
2023/08/16 10:16:27;;;;;;;5.45;5.05;;;31.10;96.70;;;;;;5085054;28;20570;-73
2023/08/16 10:18:59;;;;;;;5.97;5.28;;;31.20;96.70;;;;;;5084837;28;20097;-72
2023/08/16 10:21:34;;;;;;;5.72;4.78;;;31.30;96.70;;;;;;5049967;28;20055;-73
2023/08/16 10:24:04;;;;;;;5.90;5.40;;;31.40;96.70;;;;;;5083888;28;20070;-73
2023/08/16 10:26:34;;;;;;;5.93;4.60;;;31.50;96.70;;;;;;5058393;28;20055;-72
2023/08/16 10:29:14;;;;;;;5.40;4.90;;;31.50;96.70;;;;;;5084349;28;20577;-72
2023/08/16 10:31:46;;;;;;;7.10;5.05;;;31.70;96.70;;;;;;5063674;28;20063;-72
2023/08/16 10:34:16;;;;;;;5.88;4.88;;;32.10;96.70;;;;;;5083934;28;20040;-73
2023/08/16 10:36:47;;;;;;;5.45;4.90;;;32.10;96.70;;;;;;5084593;28;20048;-72
2023/08/16 10:39:22;;;;;;;6.32;5.40;;;32.00;96.70;;;;;;5066210;28;20039;-73
2023/08/16 10:42:01;;;;;;;5.85;5.35;;;31.90;96.70;;;;;;5065804;28;20489;-72
2023/08/16 10:44:29;;;;;;;6.32;4.97;;;31.90;96.70;;;;;;5065028;28;20048;-72
2023/08/16 10:46:58;;;;;;;5.40;4.90;;;32.20;96.70;;;;;;5047667;28;21406;-72
2023/08/16 10:49:35;;;;;;;5.63;4.82;;;32.30;96.70;;;;;;5046404;28;20056;-72
2023/08/16 10:52:06;;;;;;;5.35;4.85;;;32.50;96.70;;;;;;5066523;28;20447;-73
2023/08/16 10:54:35;;;;;;;4.72;4.32;;;32.60;96.70;;;;;;5065789;28;20040;-73
2023/08/16 10:57:05;;;;;;;5.53;5.03;;;32.60;96.70;;;;;;5083603;28;20036;-73
2023/08/16 10:59:37;;;;;;;6.05;5.25;;;32.70;96.70;;;;;;5084215;28;20068;-72
2023/08/16 11:02:14;;;;;;;5.25;4.75;;;32.80;96.70;;;;;;5084216;28;20548;-73
2023/08/16 11:04:44;;;;;;;5.47;5.07;;;32.90;96.70;;;;;;5084203;28;20075;-72
2023/08/16 11:07:15;;;;;;;4.97;4.55;;;33.00;96.70;;;;;;5083751;28;20040;-73
2023/08/16 11:09:43;;;;;;;5.38;4.88;;;33.10;96.70;;;;;;5065298;28;20066;-73
2023/08/16 11:12:14;;;;;;;5.30;4.80;;;33.20;96.70;;;;;;5078694;28;20123;-74
2023/08/16 11:14:44;;;;;;;5.30;4.80;;;33.10;96.70;;;;;;5066036;28;20074;-74
2023/08/16 11:17:15;;;;;;;5.00;4.63;;;33.00;96.70;;;;;;5066485;28;20064;-73
2023/08/16 11:19:43;;;;;;;6.30;5.25;;;33.10;96.70;;;;;;5075640;28;20055;-73
2023/08/16 11:22:12;;;;;;;5.22;4.70;;;33.10;96.70;;;;;;5083550;28;20044;-74
2023/08/16 11:24:45;;;;;;;5.18;4.68;;;33.20;96.70;;;;;;5065152;28;20051;-74
2023/08/16 11:27:19;;;;;;;5.15;4.75;;;33.40;96.70;;;;;;5065407;28;20523;-74
2023/08/16 11:29:49;;;;;;;6.15;4.85;;;33.60;96.70;;;;;;5065872;28;20389;-74
2023/08/16 11:32:29;;;;;;;5.55;4.50;;;33.90;96.70;;;;;;5075893;28;20054;-71
2023/08/16 11:34:57;;;;;;;5.03;4.45;;;34.10;96.70;;;;;;5064438;28;20048;-72
2023/08/16 11:37:25;;;;;;;4.47;4.18;;;34.40;96.70;;;;;;5064785;28;20697;-73
2023/08/16 11:40:04;;;;;;;4.32;3.92;;;34.50;96.70;;;;;;5079702;28;20040;-73
2023/08/16 11:42:33;;;;;;;4.60;4.10;;;34.70;96.70;;;;;;5047673;28;20110;-74
2023/08/16 11:45:03;;;;;;;4.53;4.13;;;34.80;96.70;;;;;;5066178;28;20436;-73
2023/08/16 11:47:32;;;;;;;4.78;4.38;;;34.90;96.70;;;;;;5065409;28;20064;-72
2023/08/16 11:50:00;;;;;;;4.78;4.13;;;34.90;96.70;;;;;;5065162;28;20036;-73
2023/08/16 11:52:32;;;;;;;4.13;3.83;;;34.90;96.70;;;;;;5069152;28;20036;-73
2023/08/16 11:55:05;;;;;;;6.57;4.43;;;34.90;96.70;;;;;;5070615;28;20040;-72
2023/08/16 11:57:42;;;;;;;5.70;4.47;;;34.70;96.70;;;;;;5064602;28;20453;-72
2023/08/16 12:00:14;;;;;;;4.63;4.22;;;34.70;96.70;;;;;;5083284;28;20123;-73
2023/08/16 12:02:55;;;;;;;4.88;4.38;;;34.50;96.70;;;;;;5065851;28;20044;-72
2023/08/16 12:05:35;;;;;;;5.25;4.53;;;34.70;96.70;;;;;;5064979;28;20040;-72
2023/08/16 12:08:05;;;;;;;5.97;5.00;;;34.80;96.70;;;;;;5069196;28;20040;-73
2023/08/16 12:10:35;;;;;;;4.68;4.28;;;35.00;96.70;;;;;;5086352;28;20040;-73
2023/08/16 12:13:14;;;;;;;5.38;4.70;;;34.80;96.70;;;;;;5078761;28;20044;-73
2023/08/16 12:15:42;;;;;;;4.93;4.53;;;34.80;96.70;;;;;;5080331;28;20078;-73
2023/08/16 12:18:11;;;;;;;4.55;4.22;;;34.90;96.70;;;;;;5087156;28;20556;-72
2023/08/16 12:20:40;;;;;;;5.93;4.30;;;35.00;96.70;;;;;;5067573;28;20062;-73
2023/08/16 12:23:09;;;;;;;4.80;4.40;;;35.10;96.70;;;;;;5066593;28;20493;-73
2023/08/16 12:25:38;;;;;;;4.60;4.20;;;35.20;96.70;;;;;;5071828;28;20049;-73
2023/08/16 12:28:07;;;;;;;5.15;4.32;;;35.30;96.70;;;;;;5068280;28;20537;-73
2023/08/16 12:30:35;;;;;;;6.00;4.28;;;35.50;96.70;;;;;;5067426;28;20109;-73
2023/08/16 12:33:04;;;;;;;4.45;4.00;;;35.30;96.70;;;;;;5067852;28;20540;-73
2023/08/16 12:35:33;;;;;;;3.90;3.42;;;35.20;96.70;;;;;;5067415;28;20067;-72
2023/08/16 12:38:09;;;;;;;4.68;4.13;;;35.30;96.70;;;;;;5064577;28;20721;-72
2023/08/16 12:40:41;;;;;;;4.05;3.60;;;35.30;96.70;;;;;;5052199;28;20097;-73
2023/08/16 12:43:11;;;;;;;4.82;4.32;;;35.30;96.70;;;;;;5078599;28;20409;-73
2023/08/16 12:45:39;;;;;;;6.55;3.72;;;35.50;96.70;;;;;;5077982;28;20064;-73
2023/08/16 12:48:07;;;;;;;4.50;3.60;;;35.50;96.70;;;;;;5078437;28;20068;-73
2023/08/16 12:50:36;;;;;;;4.13;3.83;;;35.50;96.70;;;;;;5049759;28;20043;-75
2023/08/16 12:53:05;;;;;;;6.18;3.67;;;35.50;96.70;;;;;;5066640;28;20044;-75
2023/08/16 12:55:55;;;;;;;5.25;3.67;;;35.60;96.70;;;;;;5064966;28;20557;-75
2023/08/16 12:58:23;;;;;;;4.15;3.65;;;35.70;96.70;;;;;;5079290;28;20512;-75
2023/08/16 13:01:01;;;;;;;4.28;3.72;;;35.60;96.70;;;;;;5064325;28;20202;-74
2023/08/16 13:03:32;;;;;;;6.20;4.00;;;35.60;96.70;;;;;;5067063;28;20405;-74
2023/08/16 13:06:03;;;;;;;4.18;3.25;;;35.70;96.70;;;;;;5067490;28;20040;-74
2023/08/16 13:08:35;;;;;;;3.75;3.38;;;35.90;96.70;;;;;;5066241;28;20044;-74
2023/08/16 13:11:08;;;;;;;4.70;3.88;;;35.70;96.70;;;;;;5067033;28;20059;-74
2023/08/16 13:13:39;;;;;;;6.45;3.63;;;35.70;96.70;;;;;;5051027;28;20760;-74
2023/08/16 13:16:07;;;;;;;3.88;3.50;;;35.70;96.70;;;;;;5066848;28;20523;-74
2023/08/16 13:18:40;;;;;;;4.45;3.75;;;35.90;96.70;;;;;;5085068;28;20048;-74